sensor_id;sensor_type;location;lat;lon;timestamp;temperature;humidity
75155;HTU21D;63735;44.730;37.818;2023-01-06T00:00:21;8.78;90.12
75155;HTU21D;63735;44.730;37.818;2023-01-06T00:02:47;8.75;90.15
75155;HTU21D;63735;44.730;37.818;2023-01-06T00:05:13;8.77;90.02
75155;HTU21D;63735;44.730;37.818;2023-01-06T00:07:40;8.79;89.92
75155;HTU21D;63735;44.730;37.818;2023-01-06T00:10:07;8.83;89.83
75155;HTU21D;63735;44.730;37.818;2023-01-06T00:12:33;8.92;89.82
75155;HTU21D;63735;44.730;37.818;2023-01-06T00:14:58;9.00;89.58
75155;HTU21D;63735;44.730;37.818;2023-01-06T00:17:24;9.02;89.46
75155;HTU21D;63735;44.730;37.818;2023-01-06T00:19:50;9.01;89.36
75155;HTU21D;63735;44.730;37.818;2023-01-06T00:22:16;9.00;89.45
75155;HTU21D;63735;44.730;37.818;2023-01-06T00:24:42;8.96;89.57
75155;HTU21D;63735;44.730;37.818;2023-01-06T00:27:08;8.91;89.69
75155;HTU21D;63735;44.730;37.818;2023-01-06T00:29:34;8.85;89.79
75155;HTU21D;63735;44.730;37.818;2023-01-06T00:32:01;8.79;89.73
75155;HTU21D;63735;44.730;37.818;2023-01-06T00:34:28;8.80;89.83
75155;HTU21D;63735;44.730;37.818;2023-01-06T00:36:55;8.81;89.67
75155;HTU21D;63735;44.730;37.818;2023-01-06T00:39:21;8.78;89.72
75155;HTU21D;63735;44.730;37.818;2023-01-06T00:41:47;8.80;89.78
75155;HTU21D;63735;44.730;37.818;2023-01-06T00:44:32;8.81;89.79
75155;HTU21D;63735;44.730;37.818;2023-01-06T00:46:58;8.81;89.79
75155;HTU21D;63735;44.730;37.818;2023-01-06T00:49:24;8.82;89.87
75155;HTU21D;63735;44.730;37.818;2023-01-06T00:51:51;8.87;90.00
75155;HTU21D;63735;44.730;37.818;2023-01-06T00:54:17;8.92;90.03
75155;HTU21D;63735;44.730;37.818;2023-01-06T00:56:46;8.98;90.09
75155;HTU21D;63735;44.730;37.818;2023-01-06T00:59:13;9.04;90.12
75155;HTU21D;63735;44.730;37.818;2023-01-06T01:01:40;9.09;90.18
75155;HTU21D;63735;44.730;37.818;2023-01-06T01:04:07;9.14;90.24
75155;HTU21D;63735;44.730;37.818;2023-01-06T01:06:33;9.16;90.31
75155;HTU21D;63735;44.730;37.818;2023-01-06T01:09:00;9.18;90.37
75155;HTU21D;63735;44.730;37.818;2023-01-06T01:11:26;9.23;90.44
75155;HTU21D;63735;44.730;37.818;2023-01-06T01:14:14;9.31;90.52
75155;HTU21D;63735;44.730;37.818;2023-01-06T01:16:40;9.37;90.71
75155;HTU21D;63735;44.730;37.818;2023-01-06T01:19:06;9.45;91.00
75155;HTU21D;63735;44.730;37.818;2023-01-06T01:21:32;9.47;91.02
75155;HTU21D;63735;44.730;37.818;2023-01-06T01:23:58;9.51;91.03
75155;HTU21D;63735;44.730;37.818;2023-01-06T01:26:24;9.55;91.05
75155;HTU21D;63735;44.730;37.818;2023-01-06T01:28:50;9.59;91.01
75155;HTU21D;63735;44.730;37.818;2023-01-06T01:31:16;9.60;91.05
75155;HTU21D;63735;44.730;37.818;2023-01-06T01:33:42;9.59;91.09
75155;HTU21D;63735;44.730;37.818;2023-01-06T01:36:11;9.59;91.11
75155;HTU21D;63735;44.730;37.818;2023-01-06T01:38:37;9.60;91.10
75155;HTU21D;63735;44.730;37.818;2023-01-06T01:41:04;9.57;91.08
75155;HTU21D;63735;44.730;37.818;2023-01-06T01:46:50;9.51;91.12
75155;HTU21D;63735;44.730;37.818;2023-01-06T01:49:18;9.52;91.11
75155;HTU21D;63735;44.730;37.818;2023-01-06T01:51:47;9.53;91.08
75155;HTU21D;63735;44.730;37.818;2023-01-06T01:54:18;9.50;90.95
75155;HTU21D;63735;44.730;37.818;2023-01-06T01:56:51;9.47;90.83
75155;HTU21D;63735;44.730;37.818;2023-01-06T01:59:22;9.47;90.73
75155;HTU21D;63735;44.730;37.818;2023-01-06T02:01:49;9.45;90.52
75155;HTU21D;63735;44.730;37.818;2023-01-06T02:04:17;9.46;90.44
75155;HTU21D;63735;44.730;37.818;2023-01-06T02:06:45;9.46;90.33
75155;HTU21D;63735;44.730;37.818;2023-01-06T02:09:26;9.47;90.28
75155;HTU21D;63735;44.730;37.818;2023-01-06T02:11:54;9.49;90.27
75155;HTU21D;63735;44.730;37.818;2023-01-06T02:14:23;9.50;90.24
75155;HTU21D;63735;44.730;37.818;2023-01-06T02:16:55;9.49;90.23
75155;HTU21D;63735;44.730;37.818;2023-01-06T02:23:04;9.46;90.47
75155;HTU21D;63735;44.730;37.818;2023-01-06T02:34:28;9.56;90.37
75155;HTU21D;63735;44.730;37.818;2023-01-06T02:40:05;9.62;90.15
75155;HTU21D;63735;44.730;37.818;2023-01-06T02:51:12;9.67;90.21
75155;HTU21D;63735;44.730;37.818;2023-01-06T02:54:07;9.69;90.29
75155;HTU21D;63735;44.730;37.818;2023-01-06T02:56:43;9.70;90.33
75155;HTU21D;63735;44.730;37.818;2023-01-06T02:59:19;9.72;90.38
75155;HTU21D;63735;44.730;37.818;2023-01-06T03:01:48;9.75;90.38
75155;HTU21D;63735;44.730;37.818;2023-01-06T03:04:21;9.78;90.37
75155;HTU21D;63735;44.730;37.818;2023-01-06T03:06:51;9.80;90.28
75155;HTU21D;63735;44.730;37.818;2023-01-06T03:09:25;9.84;90.19
75155;HTU21D;63735;44.730;37.818;2023-01-06T03:11:51;9.85;90.14
75155;HTU21D;63735;44.730;37.818;2023-01-06T03:16:47;9.86;90.12
75155;HTU21D;63735;44.730;37.818;2023-01-06T03:19:14;9.86;90.18
75155;HTU21D;63735;44.730;37.818;2023-01-06T03:21:42;9.84;90.27
75155;HTU21D;63735;44.730;37.818;2023-01-06T03:24:11;9.85;90.31
75155;HTU21D;63735;44.730;37.818;2023-01-06T03:26:39;9.83;90.28
75155;HTU21D;63735;44.730;37.818;2023-01-06T03:29:09;9.83;90.32
75155;HTU21D;63735;44.730;37.818;2023-01-06T03:34:16;9.86;90.50
75155;HTU21D;63735;44.730;37.818;2023-01-06T03:37:13;9.88;90.50
75155;HTU21D;63735;44.730;37.818;2023-01-06T03:39:58;9.91;90.59
75155;HTU21D;63735;44.730;37.818;2023-01-06T03:42:31;9.93;90.62
75155;HTU21D;63735;44.730;37.818;2023-01-06T03:50:52;9.98;90.61
75155;HTU21D;63735;44.730;37.818;2023-01-06T03:56:20;9.98;90.76
75155;HTU21D;63735;44.730;37.818;2023-01-06T03:58:52;9.98;90.80
75155;HTU21D;63735;44.730;37.818;2023-01-06T04:01:21;10.00;90.83
75155;HTU21D;63735;44.730;37.818;2023-01-06T04:03:51;10.04;90.81
75155;HTU21D;63735;44.730;37.818;2023-01-06T04:06:21;10.07;90.73
75155;HTU21D;63735;44.730;37.818;2023-01-06T04:08:48;10.06;90.67
75155;HTU21D;63735;44.730;37.818;2023-01-06T04:11:14;10.09;90.60
75155;HTU21D;63735;44.730;37.818;2023-01-06T04:13:59;10.09;90.55
75155;HTU21D;63735;44.730;37.818;2023-01-06T04:16:26;10.10;90.48
75155;HTU21D;63735;44.730;37.818;2023-01-06T04:18:52;10.09;90.45
75155;HTU21D;63735;44.730;37.818;2023-01-06T04:21:18;10.03;90.53
75155;HTU21D;63735;44.730;37.818;2023-01-06T04:23:44;9.99;90.70
75155;HTU21D;63735;44.730;37.818;2023-01-06T04:26:10;10.00;90.79
75155;HTU21D;63735;44.730;37.818;2023-01-06T04:28:43;9.98;90.80
75155;HTU21D;63735;44.730;37.818;2023-01-06T04:31:09;9.96;90.86
75155;HTU21D;63735;44.730;37.818;2023-01-06T04:33:36;9.94;90.95
75155;HTU21D;63735;44.730;37.818;2023-01-06T04:36:05;9.94;90.96
75155;HTU21D;63735;44.730;37.818;2023-01-06T04:38:33;9.93;91.02
75155;HTU21D;63735;44.730;37.818;2023-01-06T04:40:59;9.94;91.02
75155;HTU21D;63735;44.730;37.818;2023-01-06T04:43:25;9.91;90.98
75155;HTU21D;63735;44.730;37.818;2023-01-06T04:45:51;9.85;91.02
75155;HTU21D;63735;44.730;37.818;2023-01-06T04:48:17;9.85;91.12
75155;HTU21D;63735;44.730;37.818;2023-01-06T04:50:43;9.88;91.19
75155;HTU21D;63735;44.730;37.818;2023-01-06T04:53:11;9.92;91.26
75155;HTU21D;63735;44.730;37.818;2023-01-06T04:55:40;9.93;91.21
75155;HTU21D;63735;44.730;37.818;2023-01-06T04:58:07;9.95;91.26
75155;HTU21D;63735;44.730;37.818;2023-01-06T05:00:34;9.98;91.30
75155;HTU21D;63735;44.730;37.818;2023-01-06T05:02:59;10.03;91.31
75155;HTU21D;63735;44.730;37.818;2023-01-06T05:05:25;10.07;91.27
75155;HTU21D;63735;44.730;37.818;2023-01-06T05:07:54;10.11;91.21
75155;HTU21D;63735;44.730;37.818;2023-01-06T05:10:20;10.11;91.07
75155;HTU21D;63735;44.730;37.818;2023-01-06T05:12:46;10.10;90.90
75155;HTU21D;63735;44.730;37.818;2023-01-06T05:15:12;10.09;90.75
75155;HTU21D;63735;44.730;37.818;2023-01-06T05:17:38;10.09;90.67
75155;HTU21D;63735;44.730;37.818;2023-01-06T05:20:04;10.11;90.47
75155;HTU21D;63735;44.730;37.818;2023-01-06T05:22:31;10.12;90.21
75155;HTU21D;63735;44.730;37.818;2023-01-06T05:24:58;10.11;90.07
75155;HTU21D;63735;44.730;37.818;2023-01-06T05:27:23;10.08;90.08
75155;HTU21D;63735;44.730;37.818;2023-01-06T05:29:49;10.08;90.12
75155;HTU21D;63735;44.730;37.818;2023-01-06T05:32:15;9.95;89.90
75155;HTU21D;63735;44.730;37.818;2023-01-06T05:34:41;9.74;89.82
75155;HTU21D;63735;44.730;37.818;2023-01-06T05:37:07;9.46;89.70
75155;HTU21D;63735;44.730;37.818;2023-01-06T05:39:33;9.20;89.79
75155;HTU21D;63735;44.730;37.818;2023-01-06T05:41:59;8.96;89.77
75155;HTU21D;63735;44.730;37.818;2023-01-06T05:44:25;8.81;89.94
75155;HTU21D;63735;44.730;37.818;2023-01-06T05:46:51;8.74;89.96
75155;HTU21D;63735;44.730;37.818;2023-01-06T05:49:16;8.70;89.96
75155;HTU21D;63735;44.730;37.818;2023-01-06T05:51:42;8.66;89.88
75155;HTU21D;63735;44.730;37.818;2023-01-06T05:54:09;8.58;89.72
75155;HTU21D;63735;44.730;37.818;2023-01-06T05:56:35;8.50;89.78
75155;HTU21D;63735;44.730;37.818;2023-01-06T05:59:01;8.34;89.74
75155;HTU21D;63735;44.730;37.818;2023-01-06T06:01:29;8.22;89.92
75155;HTU21D;63735;44.730;37.818;2023-01-06T06:03:56;8.13;90.14
75155;HTU21D;63735;44.730;37.818;2023-01-06T06:06:24;8.09;90.22
75155;HTU21D;63735;44.730;37.818;2023-01-06T06:08:50;8.08;90.30
75155;HTU21D;63735;44.730;37.818;2023-01-06T06:11:17;8.04;90.29
75155;HTU21D;63735;44.730;37.818;2023-01-06T06:13:48;8.06;90.30
75155;HTU21D;63735;44.730;37.818;2023-01-06T06:16:16;8.11;90.31
75155;HTU21D;63735;44.730;37.818;2023-01-06T06:18:42;8.12;90.31
75155;HTU21D;63735;44.730;37.818;2023-01-06T06:21:10;8.18;90.31
75155;HTU21D;63735;44.730;37.818;2023-01-06T06:23:36;8.27;90.25
75155;HTU21D;63735;44.730;37.818;2023-01-06T06:26:02;8.34;90.19
75155;HTU21D;63735;44.730;37.818;2023-01-06T06:28:32;8.44;90.11
75155;HTU21D;63735;44.730;37.818;2023-01-06T06:33:37;8.60;89.90
75155;HTU21D;63735;44.730;37.818;2023-01-06T06:36:04;8.65;89.81
75155;HTU21D;63735;44.730;37.818;2023-01-06T06:38:31;8.66;89.79
75155;HTU21D;63735;44.730;37.818;2023-01-06T06:40:57;8.66;89.83
75155;HTU21D;63735;44.730;37.818;2023-01-06T06:43:23;8.67;89.89
75155;HTU21D;63735;44.730;37.818;2023-01-06T06:45:49;8.65;89.96
75155;HTU21D;63735;44.730;37.818;2023-01-06T06:48:15;8.68;90.05
75155;HTU21D;63735;44.730;37.818;2023-01-06T06:50:42;8.71;90.04
75155;HTU21D;63735;44.730;37.818;2023-01-06T06:53:07;8.72;90.12
75155;HTU21D;63735;44.730;37.818;2023-01-06T06:55:33;8.74;90.14
75155;HTU21D;63735;44.730;37.818;2023-01-06T06:57:59;8.76;90.12
75155;HTU21D;63735;44.730;37.818;2023-01-06T07:00:25;8.76;90.15
75155;HTU21D;63735;44.730;37.818;2023-01-06T07:02:51;8.77;90.16
75155;HTU21D;63735;44.730;37.818;2023-01-06T07:05:17;8.78;90.17
75155;HTU21D;63735;44.730;37.818;2023-01-06T07:07:44;8.79;90.13
75155;HTU21D;63735;44.730;37.818;2023-01-06T07:10:14;8.78;90.02
75155;HTU21D;63735;44.730;37.818;2023-01-06T07:12:40;8.76;90.10
75155;HTU21D;63735;44.730;37.818;2023-01-06T07:15:07;8.71;90.20
75155;HTU21D;63735;44.730;37.818;2023-01-06T07:17:33;8.75;90.24
75155;HTU21D;63735;44.730;37.818;2023-01-06T07:19:59;8.77;90.21
75155;HTU21D;63735;44.730;37.818;2023-01-06T07:22:25;8.82;90.12
75155;HTU21D;63735;44.730;37.818;2023-01-06T07:24:51;8.87;89.99
75155;HTU21D;63735;44.730;37.818;2023-01-06T07:27:17;8.87;89.89
75155;HTU21D;63735;44.730;37.818;2023-01-06T07:29:43;8.88;89.83
75155;HTU21D;63735;44.730;37.818;2023-01-06T07:32:09;8.91;89.79
75155;HTU21D;63735;44.730;37.818;2023-01-06T07:34:35;8.93;89.74
75155;HTU21D;63735;44.730;37.818;2023-01-06T07:37:01;8.95;89.71
75155;HTU21D;63735;44.730;37.818;2023-01-06T07:39:26;9.00;89.64
75155;HTU21D;63735;44.730;37.818;2023-01-06T07:41:52;8.98;89.54
75155;HTU21D;63735;44.730;37.818;2023-01-06T07:44:19;8.98;89.53
75155;HTU21D;63735;44.730;37.818;2023-01-06T07:46:45;8.97;89.54
75155;HTU21D;63735;44.730;37.818;2023-01-06T07:49:11;8.98;89.51
75155;HTU21D;63735;44.730;37.818;2023-01-06T07:51:37;9.00;89.50
75155;HTU21D;63735;44.730;37.818;2023-01-06T07:54:03;8.98;89.50
75155;HTU21D;63735;44.730;37.818;2023-01-06T07:56:29;9.00;89.49
75155;HTU21D;63735;44.730;37.818;2023-01-06T07:58:55;9.02;89.47
75155;HTU21D;63735;44.730;37.818;2023-01-06T08:01:21;9.05;89.46
75155;HTU21D;63735;44.730;37.818;2023-01-06T08:03:47;9.07;89.41
75155;HTU21D;63735;44.730;37.818;2023-01-06T08:06:13;9.08;89.36
75155;HTU21D;63735;44.730;37.818;2023-01-06T08:08:40;9.10;89.34
75155;HTU21D;63735;44.730;37.818;2023-01-06T08:11:11;9.17;89.28
75155;HTU21D;63735;44.730;37.818;2023-01-06T08:13:39;9.21;89.20
75155;HTU21D;63735;44.730;37.818;2023-01-06T08:16:06;9.26;89.12
75155;HTU21D;63735;44.730;37.818;2023-01-06T08:18:33;9.32;89.07
75155;HTU21D;63735;44.730;37.818;2023-01-06T08:21:09;9.35;88.98
75155;HTU21D;63735;44.730;37.818;2023-01-06T08:23:37;9.38;88.90
75155;HTU21D;63735;44.730;37.818;2023-01-06T08:26:06;9.39;88.86
75155;HTU21D;63735;44.730;37.818;2023-01-06T08:28:32;9.38;88.79
75155;HTU21D;63735;44.730;37.818;2023-01-06T08:30:58;9.33;88.84
75155;HTU21D;63735;44.730;37.818;2023-01-06T08:33:24;9.31;88.88
75155;HTU21D;63735;44.730;37.818;2023-01-06T08:35:58;9.31;88.92
75155;HTU21D;63735;44.730;37.818;2023-01-06T08:38:25;9.32;89.00
75155;HTU21D;63735;44.730;37.818;2023-01-06T08:40:52;9.34;89.01
75155;HTU21D;63735;44.730;37.818;2023-01-06T08:43:19;9.36;89.00
75155;HTU21D;63735;44.730;37.818;2023-01-06T08:45:45;9.41;89.01
75155;HTU21D;63735;44.730;37.818;2023-01-06T08:48:11;9.45;89.06
75155;HTU21D;63735;44.730;37.818;2023-01-06T08:50:38;9.46;89.12
75155;HTU21D;63735;44.730;37.818;2023-01-06T08:53:04;9.49;89.14
75155;HTU21D;63735;44.730;37.818;2023-01-06T08:55:30;9.53;89.13
75155;HTU21D;63735;44.730;37.818;2023-01-06T08:57:56;9.55;89.09
75155;HTU21D;63735;44.730;37.818;2023-01-06T09:00:22;9.59;89.04
75155;HTU21D;63735;44.730;37.818;2023-01-06T09:02:48;9.63;89.01
75155;HTU21D;63735;44.730;37.818;2023-01-06T09:05:15;9.65;88.91
75155;HTU21D;63735;44.730;37.818;2023-01-06T09:07:41;9.65;88.86
75155;HTU21D;63735;44.730;37.818;2023-01-06T09:10:07;9.68;88.87
75155;HTU21D;63735;44.730;37.818;2023-01-06T09:12:33;9.70;88.83
75155;HTU21D;63735;44.730;37.818;2023-01-06T09:14:59;9.74;88.78
75155;HTU21D;63735;44.730;37.818;2023-01-06T09:17:25;9.75;88.70
75155;HTU21D;63735;44.730;37.818;2023-01-06T09:19:51;9.74;88.70
75155;HTU21D;63735;44.730;37.818;2023-01-06T09:22:17;9.78;88.70
75155;HTU21D;63735;44.730;37.818;2023-01-06T09:24:43;9.82;88.65
75155;HTU21D;63735;44.730;37.818;2023-01-06T09:27:09;9.89;88.59
75155;HTU21D;63735;44.730;37.818;2023-01-06T09:29:35;9.92;88.57
75155;HTU21D;63735;44.730;37.818;2023-01-06T09:32:01;9.97;88.60
75155;HTU21D;63735;44.730;37.818;2023-01-06T09:34:28;10.09;88.59
75155;HTU21D;63735;44.730;37.818;2023-01-06T09:36:54;10.14;88.47
75155;HTU21D;63735;44.730;37.818;2023-01-06T09:39:19;10.19;88.41
75155;HTU21D;63735;44.730;37.818;2023-01-06T09:44:53;10.18;88.54
75155;HTU21D;63735;44.730;37.818;2023-01-06T09:47:26;10.23;88.49
75155;HTU21D;63735;44.730;37.818;2023-01-06T09:50:29;10.26;88.47
75155;HTU21D;63735;44.730;37.818;2023-01-06T09:53:10;10.37;88.31
75155;HTU21D;63735;44.730;37.818;2023-01-06T09:55:44;10.37;88.18
75155;HTU21D;63735;44.730;37.818;2023-01-06T10:00:42;10.31;88.22
75155;HTU21D;63735;44.730;37.818;2023-01-06T10:03:17;10.33;88.25
75155;HTU21D;63735;44.730;37.818;2023-01-06T10:08:27;10.36;88.21
75155;HTU21D;63735;44.730;37.818;2023-01-06T10:20:12;10.03;88.54
75155;HTU21D;63735;44.730;37.818;2023-01-06T10:25:34;9.97;88.60
75155;HTU21D;63735;44.730;37.818;2023-01-06T10:30:51;9.94;88.51
75155;HTU21D;63735;44.730;37.818;2023-01-06T10:33:30;9.90;88.44
75155;HTU21D;63735;44.730;37.818;2023-01-06T10:35:58;9.90;88.38
75155;HTU21D;63735;44.730;37.818;2023-01-06T10:38:37;9.89;88.38
75155;HTU21D;63735;44.730;37.818;2023-01-06T10:41:29;9.89;88.35
75155;HTU21D;63735;44.730;37.818;2023-01-06T10:43:59;9.88;88.32
75155;HTU21D;63735;44.730;37.818;2023-01-06T10:46:32;9.86;88.34
75155;HTU21D;63735;44.730;37.818;2023-01-06T10:49:02;9.90;88.28
75155;HTU21D;63735;44.730;37.818;2023-01-06T10:51:38;9.90;88.22
75155;HTU21D;63735;44.730;37.818;2023-01-06T10:54:08;9.89;88.21
75155;HTU21D;63735;44.730;37.818;2023-01-06T10:56:37;9.90;88.22
75155;HTU21D;63735;44.730;37.818;2023-01-06T10:59:08;9.92;88.18
75155;HTU21D;63735;44.730;37.818;2023-01-06T11:01:35;9.94;88.16
75155;HTU21D;63735;44.730;37.818;2023-01-06T11:04:12;9.94;88.19
75155;HTU21D;63735;44.730;37.818;2023-01-06T11:11:50;10.03;88.05
75155;HTU21D;63735;44.730;37.818;2023-01-06T11:14:18;10.04;87.96
75155;HTU21D;63735;44.730;37.818;2023-01-06T11:17:08;10.09;87.88
75155;HTU21D;63735;44.730;37.818;2023-01-06T11:19:40;10.14;87.80
75155;HTU21D;63735;44.730;37.818;2023-01-06T11:24:54;10.27;87.71
75155;HTU21D;63735;44.730;37.818;2023-01-06T11:27:20;10.36;87.72
75155;HTU21D;63735;44.730;37.818;2023-01-06T11:29:46;10.46;87.69
75155;HTU21D;63735;44.730;37.818;2023-01-06T11:32:19;10.56;87.64
75155;HTU21D;63735;44.730;37.818;2023-01-06T11:34:59;10.66;87.56
75155;HTU21D;63735;44.730;37.818;2023-01-06T11:37:36;10.73;87.47
75155;HTU21D;63735;44.730;37.818;2023-01-06T11:43:01;10.92;86.60
75155;HTU21D;63735;44.730;37.818;2023-01-06T11:45:38;11.01;86.04
75155;HTU21D;63735;44.730;37.818;2023-01-06T11:48:13;11.05;85.58
75155;HTU21D;63735;44.730;37.818;2023-01-06T11:50:49;11.11;85.14
75155;HTU21D;63735;44.730;37.818;2023-01-06T11:53:17;11.17;84.82
75155;HTU21D;63735;44.730;37.818;2023-01-06T12:01:19;11.63;82.75
75155;HTU21D;63735;44.730;37.818;2023-01-06T12:03:49;11.99;82.29
75155;HTU21D;63735;44.730;37.818;2023-01-06T12:06:26;12.07;81.15
75155;HTU21D;63735;44.730;37.818;2023-01-06T12:09:19;11.97;81.28
75155;HTU21D;63735;44.730;37.818;2023-01-06T12:11:53;11.90;81.02
75155;HTU21D;63735;44.730;37.818;2023-01-06T12:14:22;12.00;80.44
75155;HTU21D;63735;44.730;37.818;2023-01-06T12:16:54;12.19;79.83
75155;HTU21D;63735;44.730;37.818;2023-01-06T12:21:59;12.61;79.17
75155;HTU21D;63735;44.730;37.818;2023-01-06T12:24:27;13.27;78.82
75155;HTU21D;63735;44.730;37.818;2023-01-06T12:26:55;13.80;77.73
75155;HTU21D;63735;44.730;37.818;2023-01-06T12:29:22;14.08;76.05
75155;HTU21D;63735;44.730;37.818;2023-01-06T12:32:09;14.13;76.32
75155;HTU21D;63735;44.730;37.818;2023-01-06T12:34:41;14.08;75.21
75155;HTU21D;63735;44.730;37.818;2023-01-06T12:40:28;13.41;75.62
75155;HTU21D;63735;44.730;37.818;2023-01-06T12:45:57;12.51;75.65
75155;HTU21D;63735;44.730;37.818;2023-01-06T12:48:45;12.03;75.38
75155;HTU21D;63735;44.730;37.818;2023-01-06T12:51:17;11.75;76.37
75155;HTU21D;63735;44.730;37.818;2023-01-06T13:13:12;10.44;77.86
75155;HTU21D;63735;44.730;37.818;2023-01-06T13:15:44;10.37;77.97
75155;HTU21D;63735;44.730;37.818;2023-01-06T13:18:17;10.30;77.81
75155;HTU21D;63735;44.730;37.818;2023-01-06T13:20:50;10.23;77.98
75155;HTU21D;63735;44.730;37.818;2023-01-06T13:26:51;10.11;78.25
75155;HTU21D;63735;44.730;37.818;2023-01-06T13:37:55;9.86;78.55
75155;HTU21D;63735;44.730;37.818;2023-01-06T13:40:25;9.83;78.69
75155;HTU21D;63735;44.730;37.818;2023-01-06T13:45:47;9.74;78.98
75155;HTU21D;63735;44.730;37.818;2023-01-06T13:48:24;9.69;79.08
75155;HTU21D;63735;44.730;37.818;2023-01-06T13:51:05;9.68;79.14
75155;HTU21D;63735;44.730;37.818;2023-01-06T13:53:39;9.65;79.30
75155;HTU21D;63735;44.730;37.818;2023-01-06T13:58:42;9.63;79.49
75155;HTU21D;63735;44.730;37.818;2023-01-06T14:03:46;9.62;79.61
75155;HTU21D;63735;44.730;37.818;2023-01-06T14:08:50;9.57;79.79
75155;HTU21D;63735;44.730;37.818;2023-01-06T14:11:27;9.57;79.85
75155;HTU21D;63735;44.730;37.818;2023-01-06T14:14:03;9.57;79.93
75155;HTU21D;63735;44.730;37.818;2023-01-06T14:16:47;9.56;79.98
75155;HTU21D;63735;44.730;37.818;2023-01-06T14:19:32;9.55;80.08
75155;HTU21D;63735;44.730;37.818;2023-01-06T14:22:29;9.56;80.13
75155;HTU21D;63735;44.730;37.818;2023-01-06T14:25:01;9.54;80.23
75155;HTU21D;63735;44.730;37.818;2023-01-06T14:30:28;9.53;80.36
75155;HTU21D;63735;44.730;37.818;2023-01-06T14:33:02;9.53;80.42
75155;HTU21D;63735;44.730;37.818;2023-01-06T14:35:30;9.54;80.43
75155;HTU21D;63735;44.730;37.818;2023-01-06T14:38:03;9.54;80.47
75155;HTU21D;63735;44.730;37.818;2023-01-06T14:40:38;9.55;80.51
75155;HTU21D;63735;44.730;37.818;2023-01-06T14:43:37;9.55;80.54
75155;HTU21D;63735;44.730;37.818;2023-01-06T14:46:26;9.51;80.57
75155;HTU21D;63735;44.730;37.818;2023-01-06T14:48:58;9.50;80.62
75155;HTU21D;63735;44.730;37.818;2023-01-06T14:51:26;9.48;80.65
75155;HTU21D;63735;44.730;37.818;2023-01-06T14:54:05;9.49;80.68
75155;HTU21D;63735;44.730;37.818;2023-01-06T14:56:33;9.48;80.71
75155;HTU21D;63735;44.730;37.818;2023-01-06T14:59:11;9.48;80.74
75155;HTU21D;63735;44.730;37.818;2023-01-06T15:01:39;9.47;80.77
75155;HTU21D;63735;44.730;37.818;2023-01-06T15:04:20;9.46;80.80
75155;HTU21D;63735;44.730;37.818;2023-01-06T15:06:58;9.44;80.83
75155;HTU21D;63735;44.730;37.818;2023-01-06T15:09:25;9.44;80.88
75155;HTU21D;63735;44.730;37.818;2023-01-06T15:11:51;9.42;80.90
75155;HTU21D;63735;44.730;37.818;2023-01-06T15:14:31;9.41;80.89
75155;HTU21D;63735;44.730;37.818;2023-01-06T15:17:03;9.42;80.90
75155;HTU21D;63735;44.730;37.818;2023-01-06T15:19:30;9.41;80.81
75155;HTU21D;63735;44.730;37.818;2023-01-06T15:21:56;9.41;80.78
75155;HTU21D;63735;44.730;37.818;2023-01-06T15:24:28;9.40;80.75
75155;HTU21D;63735;44.730;37.818;2023-01-06T15:27:05;9.39;80.72
75155;HTU21D;63735;44.730;37.818;2023-01-06T15:29:31;9.38;80.72
75155;HTU21D;63735;44.730;37.818;2023-01-06T15:32:00;9.32;80.57
75155;HTU21D;63735;44.730;37.818;2023-01-06T15:34:32;9.29;80.52
75155;HTU21D;63735;44.730;37.818;2023-01-06T15:37:01;9.27;80.49
75155;HTU21D;63735;44.730;37.818;2023-01-06T15:39:29;9.23;80.45
75155;HTU21D;63735;44.730;37.818;2023-01-06T15:41:57;9.20;80.45
75155;HTU21D;63735;44.730;37.818;2023-01-06T15:44:31;9.18;80.40
75155;HTU21D;63735;44.730;37.818;2023-01-06T15:49:47;9.15;80.28
75155;HTU21D;63735;44.730;37.818;2023-01-06T15:55:26;9.16;80.09
75155;HTU21D;63735;44.730;37.818;2023-01-06T15:57:56;9.14;80.13
75155;HTU21D;63735;44.730;37.818;2023-01-06T16:00:53;9.12;80.07
75155;HTU21D;63735;44.730;37.818;2023-01-06T16:03:22;9.11;80.15
75155;HTU21D;63735;44.730;37.818;2023-01-06T16:05:49;9.10;80.15
75155;HTU21D;63735;44.730;37.818;2023-01-06T16:08:25;9.09;80.17
75155;HTU21D;63735;44.730;37.818;2023-01-06T16:14:03;9.15;80.19
75155;HTU21D;63735;44.730;37.818;2023-01-06T16:16:32;9.14;80.16
75155;HTU21D;63735;44.730;37.818;2023-01-06T16:19:09;9.11;80.18
75155;HTU21D;63735;44.730;37.818;2023-01-06T16:21:38;9.11;80.11
75155;HTU21D;63735;44.730;37.818;2023-01-06T16:24:05;9.09;80.12
75155;HTU21D;63735;44.730;37.818;2023-01-06T16:26:42;9.11;80.08
75155;HTU21D;63735;44.730;37.818;2023-01-06T16:29:33;9.10;80.13
75155;HTU21D;63735;44.730;37.818;2023-01-06T16:32:32;9.09;80.11
75155;HTU21D;63735;44.730;37.818;2023-01-06T16:35:01;9.08;80.14
75155;HTU21D;63735;44.730;37.818;2023-01-06T16:37:32;9.10;80.18
75155;HTU21D;63735;44.730;37.818;2023-01-06T16:39:58;9.10;80.15
75155;HTU21D;63735;44.730;37.818;2023-01-06T16:42:30;9.09;80.11
75155;HTU21D;63735;44.730;37.818;2023-01-06T16:47:35;9.02;79.81
75155;HTU21D;63735;44.730;37.818;2023-01-06T16:52:42;8.87;79.80
75155;HTU21D;63735;44.730;37.818;2023-01-06T16:55:16;8.81;79.59
75155;HTU21D;63735;44.730;37.818;2023-01-06T16:57:47;8.79;79.56
75155;HTU21D;63735;44.730;37.818;2023-01-06T17:00:15;8.74;79.57
75155;HTU21D;63735;44.730;37.818;2023-01-06T17:02:42;8.68;79.61
75155;HTU21D;63735;44.730;37.818;2023-01-06T17:05:23;8.64;79.41
75155;HTU21D;63735;44.730;37.818;2023-01-06T17:07:49;8.61;79.33
75155;HTU21D;63735;44.730;37.818;2023-01-06T17:10:20;8.56;79.32
75155;HTU21D;63735;44.730;37.818;2023-01-06T17:13:02;8.57;79.33
75155;HTU21D;63735;44.730;37.818;2023-01-06T17:15:50;8.57;79.22
75155;HTU21D;63735;44.730;37.818;2023-01-06T17:18:28;8.56;79.21
75155;HTU21D;63735;44.730;37.818;2023-01-06T17:21:19;8.56;79.08
75155;HTU21D;63735;44.730;37.818;2023-01-06T17:24:01;8.56;79.10
75155;HTU21D;63735;44.730;37.818;2023-01-06T17:26:30;8.55;79.06
75155;HTU21D;63735;44.730;37.818;2023-01-06T17:28:58;8.55;79.09
75155;HTU21D;63735;44.730;37.818;2023-01-06T17:31:37;8.56;79.09
75155;HTU21D;63735;44.730;37.818;2023-01-06T17:34:17;8.53;79.10
75155;HTU21D;63735;44.730;37.818;2023-01-06T17:36:46;8.52;79.11
75155;HTU21D;63735;44.730;37.818;2023-01-06T17:39:29;8.51;78.89
75155;HTU21D;63735;44.730;37.818;2023-01-06T17:44:42;8.49;78.97
75155;HTU21D;63735;44.730;37.818;2023-01-06T17:49:54;8.49;79.11
75155;HTU21D;63735;44.730;37.818;2023-01-06T17:52:22;8.47;79.09
75155;HTU21D;63735;44.730;37.818;2023-01-06T17:54:52;8.47;79.04
75155;HTU21D;63735;44.730;37.818;2023-01-06T17:57:38;8.45;79.09
75155;HTU21D;63735;44.730;37.818;2023-01-06T18:00:31;8.45;79.01
75155;HTU21D;63735;44.730;37.818;2023-01-06T18:03:04;8.45;79.06
75155;HTU21D;63735;44.730;37.818;2023-01-06T18:10:36;8.36;79.27
75155;HTU21D;63735;44.730;37.818;2023-01-06T18:13:33;8.31;79.52